sensor_id;sensor_type;location;lat;lon;timestamp;P1;durP1;ratioP1;P2;durP2;ratioP2
43509;SDS011;29105;57.764;40.952;2023-08-07T00:00:23;3.83;;;0.85;;
43509;SDS011;29105;57.764;40.952;2023-08-07T00:02:49;3.58;;;1.23;;
43509;SDS011;29105;57.764;40.952;2023-08-07T00:05:15;1.70;;;0.80;;
43509;SDS011;29105;57.764;40.952;2023-08-07T00:07:44;3.17;;;1.17;;
43509;SDS011;29105;57.764;40.952;2023-08-07T00:10:10;5.60;;;1.67;;
43509;SDS011;29105;57.764;40.952;2023-08-07T00:12:36;4.00;;;1.10;;
43509;SDS011;29105;57.764;40.952;2023-08-07T00:15:02;6.07;;;1.25;;
43509;SDS011;29105;57.764;40.952;2023-08-07T00:17:30;3.03;;;1.00;;
43509;SDS011;29105;57.764;40.952;2023-08-07T00:19:56;1.80;;;1.08;;
43509;SDS011;29105;57.764;40.952;2023-08-07T00:22:22;3.28;;;0.90;;
43509;SDS011;29105;57.764;40.952;2023-08-07T00:24:48;3.83;;;1.33;;
43509;SDS011;29105;57.764;40.952;2023-08-07T00:27:14;5.50;;;1.35;;
43509;SDS011;29105;57.764;40.952;2023-08-07T00:29:40;2.50;;;1.05;;
43509;SDS011;29105;57.764;40.952;2023-08-07T00:32:06;3.33;;;1.42;;
43509;SDS011;29105;57.764;40.952;2023-08-07T00:34:32;3.33;;;0.90;;
43509;SDS011;29105;57.764;40.952;2023-08-07T00:36:57;3.17;;;1.00;;
43509;SDS011;29105;57.764;40.952;2023-08-07T00:39:23;3.20;;;0.85;;
43509;SDS011;29105;57.764;40.952;2023-08-07T00:41:49;2.75;;;0.95;;
43509;SDS011;29105;57.764;40.952;2023-08-07T00:44:15;3.40;;;1.00;;
43509;SDS011;29105;57.764;40.952;2023-08-07T00:46:41;5.15;;;0.88;;
43509;SDS011;29105;57.764;40.952;2023-08-07T00:49:07;1.05;;;0.60;;
43509;SDS011;29105;57.764;40.952;2023-08-07T00:51:33;2.63;;;1.20;;
43509;SDS011;29105;57.764;40.952;2023-08-07T00:53:59;6.07;;;0.98;;
43509;SDS011;29105;57.764;40.952;2023-08-07T00:56:28;3.00;;;1.48;;
43509;SDS011;29105;57.764;40.952;2023-08-07T00:58:53;1.75;;;0.80;;
43509;SDS011;29105;57.764;40.952;2023-08-07T01:01:19;2.85;;;0.70;;
43509;SDS011;29105;57.764;40.952;2023-08-07T01:03:45;2.80;;;1.00;;
43509;SDS011;29105;57.764;40.952;2023-08-07T01:06:11;1.38;;;0.88;;
43509;SDS011;29105;57.764;40.952;2023-08-07T01:08:36;1.98;;;0.75;;
43509;SDS011;29105;57.764;40.952;2023-08-07T01:19:19;8.05;;;1.20;;
43509;SDS011;29105;57.764;40.952;2023-08-07T01:24:33;1.77;;;0.90;;
43509;SDS011;29105;57.764;40.952;2023-08-07T01:32:46;3.05;;;0.90;;
43509;SDS011;29105;57.764;40.952;2023-08-07T01:35:20;2.30;;;0.90;;
43509;SDS011;29105;57.764;40.952;2023-08-07T01:37:47;4.10;;;1.25;;
43509;SDS011;29105;57.764;40.952;2023-08-07T01:40:14;5.30;;;0.88;;
43509;SDS011;29105;57.764;40.952;2023-08-07T01:42:40;3.00;;;1.23;;
43509;SDS011;29105;57.764;40.952;2023-08-07T01:45:06;3.90;;;1.20;;
43509;SDS011;29105;57.764;40.952;2023-08-07T01:47:33;4.70;;;1.08;;
43509;SDS011;29105;57.764;40.952;2023-08-07T01:49:59;1.58;;;0.98;;
43509;SDS011;29105;57.764;40.952;2023-08-07T01:52:25;2.28;;;0.93;;
43509;SDS011;29105;57.764;40.952;2023-08-07T01:54:51;3.08;;;1.23;;
43509;SDS011;29105;57.764;40.952;2023-08-07T01:57:16;1.55;;;1.00;;
43509;SDS011;29105;57.764;40.952;2023-08-07T01:59:42;3.40;;;0.90;;
43509;SDS011;29105;57.764;40.952;2023-08-07T02:02:10;3.55;;;0.70;;
43509;SDS011;29105;57.764;40.952;2023-08-07T02:04:35;6.47;;;1.10;;
43509;SDS011;29105;57.764;40.952;2023-08-07T02:07:01;1.42;;;0.80;;
43509;SDS011;29105;57.764;40.952;2023-08-07T02:09:27;5.80;;;1.05;;
43509;SDS011;29105;57.764;40.952;2023-08-07T02:11:52;5.60;;;1.00;;
43509;SDS011;29105;57.764;40.952;2023-08-07T02:14:18;1.65;;;0.65;;
43509;SDS011;29105;57.764;40.952;2023-08-07T02:16:44;2.58;;;0.85;;
43509;SDS011;29105;57.764;40.952;2023-08-07T02:19:10;2.25;;;0.80;;
43509;SDS011;29105;57.764;40.952;2023-08-07T02:21:35;4.78;;;0.98;;
43509;SDS011;29105;57.764;40.952;2023-08-07T02:24:01;4.55;;;0.85;;
43509;SDS011;29105;57.764;40.952;2023-08-07T02:26:26;1.17;;;0.93;;
43509;SDS011;29105;57.764;40.952;2023-08-07T02:28:52;2.08;;;0.85;;
43509;SDS011;29105;57.764;40.952;2023-08-07T02:31:18;7.22;;;0.95;;
43509;SDS011;29105;57.764;40.952;2023-08-07T02:33:43;3.35;;;0.70;;
43509;SDS011;29105;57.764;40.952;2023-08-07T02:36:09;3.42;;;0.70;;
43509;SDS011;29105;57.764;40.952;2023-08-07T02:38:35;1.80;;;0.75;;
43509;SDS011;29105;57.764;40.952;2023-08-07T02:41:00;3.72;;;0.70;;
43509;SDS011;29105;57.764;40.952;2023-08-07T02:43:26;3.42;;;0.90;;
43509;SDS011;29105;57.764;40.952;2023-08-07T02:45:53;0.90;;;0.52;;
43509;SDS011;29105;57.764;40.952;2023-08-07T02:48:19;3.03;;;0.80;;
43509;SDS011;29105;57.764;40.952;2023-08-07T02:50:45;1.48;;;0.85;;
43509;SDS011;29105;57.764;40.952;2023-08-07T02:53:11;4.43;;;0.65;;
43509;SDS011;29105;57.764;40.952;2023-08-07T02:55:36;1.63;;;0.60;;
43509;SDS011;29105;57.764;40.952;2023-08-07T02:58:02;4.63;;;1.05;;
43509;SDS011;29105;57.764;40.952;2023-08-07T03:00:28;2.03;;;0.80;;
43509;SDS011;29105;57.764;40.952;2023-08-07T03:02:53;3.13;;;0.90;;
43509;SDS011;29105;57.764;40.952;2023-08-07T03:05:19;2.03;;;0.80;;
43509;SDS011;29105;57.764;40.952;2023-08-07T03:07:45;2.78;;;0.80;;
43509;SDS011;29105;57.764;40.952;2023-08-07T03:10:10;2.17;;;0.68;;
43509;SDS011;29105;57.764;40.952;2023-08-07T03:12:37;2.50;;;0.77;;
43509;SDS011;29105;57.764;40.952;2023-08-07T03:15:04;6.63;;;0.75;;
43509;SDS011;29105;57.764;40.952;2023-08-07T03:17:30;2.78;;;0.80;;
43509;SDS011;29105;57.764;40.952;2023-08-07T03:19:56;3.60;;;0.93;;
43509;SDS011;29105;57.764;40.952;2023-08-07T03:22:22;3.38;;;1.00;;
43509;SDS011;29105;57.764;40.952;2023-08-07T03:24:47;2.92;;;1.13;;
43509;SDS011;29105;57.764;40.952;2023-08-07T03:27:13;2.83;;;0.77;;
43509;SDS011;29105;57.764;40.952;2023-08-07T03:29:39;10.00;;;1.30;;
43509;SDS011;29105;57.764;40.952;2023-08-07T03:32:05;3.70;;;0.60;;
43509;SDS011;29105;57.764;40.952;2023-08-07T03:34:31;8.15;;;1.02;;
43509;SDS011;29105;57.764;40.952;2023-08-07T03:36:57;2.50;;;0.88;;
43509;SDS011;29105;57.764;40.952;2023-08-07T03:39:25;2.25;;;1.02;;
43509;SDS011;29105;57.764;40.952;2023-08-07T03:41:50;3.13;;;1.10;;
43509;SDS011;29105;57.764;40.952;2023-08-07T03:44:16;1.30;;;0.70;;
43509;SDS011;29105;57.764;40.952;2023-08-07T03:46:42;8.30;;;1.05;;
43509;SDS011;29105;57.764;40.952;2023-08-07T03:49:10;6.38;;;1.08;;
43509;SDS011;29105;57.764;40.952;2023-08-07T03:51:36;2.97;;;0.73;;
43509;SDS011;29105;57.764;40.952;2023-08-07T03:54:01;4.10;;;0.98;;
43509;SDS011;29105;57.764;40.952;2023-08-07T03:56:27;3.80;;;0.73;;
43509;SDS011;29105;57.764;40.952;2023-08-07T03:58:53;1.83;;;0.90;;
43509;SDS011;29105;57.764;40.952;2023-08-07T04:01:19;6.00;;;1.02;;
43509;SDS011;29105;57.764;40.952;2023-08-07T04:03:46;3.65;;;0.70;;
43509;SDS011;29105;57.764;40.952;2023-08-07T04:06:12;3.80;;;0.63;;
43509;SDS011;29105;57.764;40.952;2023-08-07T04:08:41;3.47;;;0.65;;
43509;SDS011;29105;57.764;40.952;2023-08-07T04:11:07;0.80;;;0.63;;
43509;SDS011;29105;57.764;40.952;2023-08-07T04:13:34;2.75;;;0.70;;
43509;SDS011;29105;57.764;40.952;2023-08-07T04:16:00;2.97;;;0.77;;
43509;SDS011;29105;57.764;40.952;2023-08-07T04:18:29;3.53;;;0.55;;
43509;SDS011;29105;57.764;40.952;2023-08-07T04:20:55;5.53;;;0.95;;
43509;SDS011;29105;57.764;40.952;2023-08-07T04:23:22;7.72;;;0.60;;
43509;SDS011;29105;57.764;40.952;2023-08-07T04:25:48;0.95;;;0.50;;
43509;SDS011;29105;57.764;40.952;2023-08-07T04:28:14;7.30;;;0.98;;
43509;SDS011;29105;57.764;40.952;2023-08-07T04:30:40;8.73;;;1.05;;
43509;SDS011;29105;57.764;40.952;2023-08-07T04:33:06;6.25;;;0.68;;
43509;SDS011;29105;57.764;40.952;2023-08-07T04:35:32;3.17;;;0.70;;
43509;SDS011;29105;57.764;40.952;2023-08-07T04:37:58;2.55;;;0.50;;
43509;SDS011;29105;57.764;40.952;2023-08-07T04:40:23;1.55;;;0.50;;
43509;SDS011;29105;57.764;40.952;2023-08-07T04:42:49;5.05;;;0.75;;
43509;SDS011;29105;57.764;40.952;2023-08-07T04:45:15;2.17;;;0.90;;
43509;SDS011;29105;57.764;40.952;2023-08-07T04:47:40;4.70;;;0.90;;
43509;SDS011;29105;57.764;40.952;2023-08-07T04:50:07;4.78;;;0.60;;
43509;SDS011;29105;57.764;40.952;2023-08-07T04:52:33;4.03;;;0.63;;
43509;SDS011;29105;57.764;40.952;2023-08-07T04:55:01;3.83;;;0.80;;
43509;SDS011;29105;57.764;40.952;2023-08-07T04:57:28;2.92;;;0.75;;
43509;SDS011;29105;57.764;40.952;2023-08-07T04:59:54;6.18;;;0.75;;
43509;SDS011;29105;57.764;40.952;2023-08-07T05:02:20;4.18;;;0.60;;
43509;SDS011;29105;57.764;40.952;2023-08-07T05:04:45;3.60;;;0.88;;
43509;SDS011;29105;57.764;40.952;2023-08-07T05:07:11;5.28;;;1.00;;
43509;SDS011;29105;57.764;40.952;2023-08-07T05:09:37;9.63;;;1.30;;
43509;SDS011;29105;57.764;40.952;2023-08-07T05:12:04;15.15;;;1.35;;
43509;SDS011;29105;57.764;40.952;2023-08-07T05:14:32;7.95;;;0.70;;
43509;SDS011;29105;57.764;40.952;2023-08-07T05:16:57;5.18;;;1.05;;
43509;SDS011;29105;57.764;40.952;2023-08-07T05:19:24;11.60;;;1.40;;
43509;SDS011;29105;57.764;40.952;2023-08-07T05:21:50;2.00;;;0.63;;
43509;SDS011;29105;57.764;40.952;2023-08-07T05:24:17;2.42;;;0.60;;
43509;SDS011;29105;57.764;40.952;2023-08-07T05:26:43;2.97;;;0.57;;
43509;SDS011;29105;57.764;40.952;2023-08-07T05:29:09;2.35;;;0.35;;
43509;SDS011;29105;57.764;40.952;2023-08-07T05:31:34;5.90;;;0.63;;
43509;SDS011;29105;57.764;40.952;2023-08-07T05:34:01;3.05;;;0.70;;
43509;SDS011;29105;57.764;40.952;2023-08-07T05:36:27;3.08;;;0.50;;
43509;SDS011;29105;57.764;40.952;2023-08-07T05:38:53;2.17;;;0.57;;
43509;SDS011;29105;57.764;40.952;2023-08-07T05:41:19;6.78;;;0.50;;
43509;SDS011;29105;57.764;40.952;2023-08-07T05:43:45;2.78;;;0.85;;
43509;SDS011;29105;57.764;40.952;2023-08-07T05:46:11;4.70;;;1.02;;
43509;SDS011;29105;57.764;40.952;2023-08-07T05:48:36;1.77;;;0.50;;
43509;SDS011;29105;57.764;40.952;2023-08-07T05:51:02;3.30;;;0.68;;
43509;SDS011;29105;57.764;40.952;2023-08-07T05:53:28;3.88;;;0.98;;
43509;SDS011;29105;57.764;40.952;2023-08-07T05:55:54;3.15;;;0.73;;
43509;SDS011;29105;57.764;40.952;2023-08-07T05:58:20;7.60;;;0.95;;
43509;SDS011;29105;57.764;40.952;2023-08-07T06:00:46;3.10;;;1.05;;
43509;SDS011;29105;57.764;40.952;2023-08-07T06:03:11;3.47;;;0.80;;
43509;SDS011;29105;57.764;40.952;2023-08-07T06:05:37;2.30;;;0.70;;
43509;SDS011;29105;57.764;40.952;2023-08-07T06:08:03;3.42;;;0.57;;
43509;SDS011;29105;57.764;40.952;2023-08-07T06:10:29;3.28;;;0.40;;
43509;SDS011;29105;57.764;40.952;2023-08-07T06:12:55;3.47;;;0.75;;
43509;SDS011;29105;57.764;40.952;2023-08-07T06:15:20;1.45;;;0.38;;
43509;SDS011;29105;57.764;40.952;2023-08-07T06:17:46;2.08;;;0.30;;
43509;SDS011;29105;57.764;40.952;2023-08-07T06:20:12;4.00;;;0.38;;
43509;SDS011;29105;57.764;40.952;2023-08-07T06:22:40;1.80;;;0.30;;
43509;SDS011;29105;57.764;40.952;2023-08-07T06:25:06;2.25;;;0.57;;
43509;SDS011;29105;57.764;40.952;2023-08-07T06:27:32;2.22;;;0.47;;
43509;SDS011;29105;57.764;40.952;2023-08-07T06:29:58;1.42;;;0.50;;
43509;SDS011;29105;57.764;40.952;2023-08-07T06:32:27;4.32;;;0.40;;
43509;SDS011;29105;57.764;40.952;2023-08-07T06:34:53;3.00;;;0.50;;
43509;SDS011;29105;57.764;40.952;2023-08-07T06:37:19;1.20;;;0.45;;
43509;SDS011;29105;57.764;40.952;2023-08-07T06:39:45;8.63;;;0.60;;
43509;SDS011;29105;57.764;40.952;2023-08-07T06:42:12;3.53;;;0.43;;
43509;SDS011;29105;57.764;40.952;2023-08-07T06:44:37;3.10;;;0.43;;
43509;SDS011;29105;57.764;40.952;2023-08-07T06:47:03;2.25;;;0.30;;
43509;SDS011;29105;57.764;40.952;2023-08-07T06:49:29;3.47;;;0.35;;
43509;SDS011;29105;57.764;40.952;2023-08-07T06:51:57;1.95;;;0.73;;
43509;SDS011;29105;57.764;40.952;2023-08-07T06:54:23;1.52;;;0.30;;
43509;SDS011;29105;57.764;40.952;2023-08-07T06:56:49;1.30;;;0.57;;
43509;SDS011;29105;57.764;40.952;2023-08-07T06:59:15;2.05;;;0.40;;
43509;SDS011;29105;57.764;40.952;2023-08-07T07:01:40;0.55;;;0.30;;
43509;SDS011;29105;57.764;40.952;2023-08-07T07:04:06;1.30;;;0.50;;
43509;SDS011;29105;57.764;40.952;2023-08-07T07:06:32;2.42;;;0.55;;
43509;SDS011;29105;57.764;40.952;2023-08-07T07:08:58;1.52;;;0.50;;
43509;SDS011;29105;57.764;40.952;2023-08-07T07:11:24;1.05;;;0.30;;
43509;SDS011;29105;57.764;40.952;2023-08-07T07:13:50;3.47;;;0.57;;
43509;SDS011;29105;57.764;40.952;2023-08-07T07:16:17;2.55;;;0.40;;
43509;SDS011;29105;57.764;40.952;2023-08-07T07:18:43;6.10;;;0.73;;
43509;SDS011;29105;57.764;40.952;2023-08-07T07:21:09;1.15;;;0.35;;
43509;SDS011;29105;57.764;40.952;2023-08-07T07:23:35;2.90;;;0.40;;
43509;SDS011;29105;57.764;40.952;2023-08-07T07:26:00;3.83;;;0.47;;
43509;SDS011;29105;57.764;40.952;2023-08-07T07:28:26;4.20;;;0.40;;
43509;SDS011;29105;57.764;40.952;2023-08-07T07:30:52;4.10;;;0.55;;
43509;SDS011;29105;57.764;40.952;2023-08-07T07:33:18;3.95;;;0.68;;
43509;SDS011;29105;57.764;40.952;2023-08-07T07:35:44;4.30;;;0.45;;
43509;SDS011;29105;57.764;40.952;2023-08-07T07:38:09;3.80;;;0.32;;
43509;SDS011;29105;57.764;40.952;2023-08-07T07:40:35;1.23;;;0.50;;
43509;SDS011;29105;57.764;40.952;2023-08-07T07:43:01;1.88;;;0.40;;
43509;SDS011;29105;57.764;40.952;2023-08-07T07:45:27;1.95;;;0.30;;
43509;SDS011;29105;57.764;40.952;2023-08-07T07:47:53;1.00;;;0.30;;
43509;SDS011;29105;57.764;40.952;2023-08-07T07:50:19;1.50;;;0.22;;
43509;SDS011;29105;57.764;40.952;2023-08-07T07:52:44;4.22;;;1.00;;
43509;SDS011;29105;57.764;40.952;2023-08-07T07:55:10;1.52;;;0.40;;
43509;SDS011;29105;57.764;40.952;2023-08-07T07:57:37;1.20;;;0.25;;
43509;SDS011;29105;57.764;40.952;2023-08-07T08:00:03;1.67;;;0.30;;
43509;SDS011;29105;57.764;40.952;2023-08-07T08:02:33;0.82;;;0.25;;
43509;SDS011;29105;57.764;40.952;2023-08-07T08:04:58;1.85;;;0.30;;
43509;SDS011;29105;57.764;40.952;2023-08-07T08:07:24;2.20;;;0.57;;
43509;SDS011;29105;57.764;40.952;2023-08-07T08:09:50;2.20;;;0.43;;
43509;SDS011;29105;57.764;40.952;2023-08-07T08:12:18;2.97;;;0.43;;
43509;SDS011;29105;57.764;40.952;2023-08-07T08:14:46;1.50;;;0.45;;
43509;SDS011;29105;57.764;40.952;2023-08-07T08:17:11;1.42;;;0.35;;
43509;SDS011;29105;57.764;40.952;2023-08-07T08:19:37;2.67;;;0.30;;
43509;SDS011;29105;57.764;40.952;2023-08-07T08:22:03;1.27;;;0.35;;
43509;SDS011;29105;57.764;40.952;2023-08-07T08:24:29;1.42;;;0.30;;
43509;SDS011;29105;57.764;40.952;2023-08-07T08:26:56;1.98;;;0.40;;
43509;SDS011;29105;57.764;40.952;2023-08-07T08:29:24;0.98;;;0.20;;
43509;SDS011;29105;57.764;40.952;2023-08-07T08:31:53;2.20;;;0.30;;
43509;SDS011;29105;57.764;40.952;2023-08-07T08:34:20;3.38;;;0.35;;
43509;SDS011;29105;57.764;40.952;2023-08-07T08:36:47;2.13;;;0.20;;
43509;SDS011;29105;57.764;40.952;2023-08-07T08:39:15;0.68;;;0.20;;
43509;SDS011;29105;57.764;40.952;2023-08-07T08:41:41;3.78;;;0.35;;
43509;SDS011;29105;57.764;40.952;2023-08-07T08:44:12;4.25;;;0.52;;
43509;SDS011;29105;57.764;40.952;2023-08-07T08:46:38;1.95;;;0.40;;
43509;SDS011;29105;57.764;40.952;2023-08-07T08:49:04;1.67;;;0.30;;
43509;SDS011;29105;57.764;40.952;2023-08-07T08:51:30;0.45;;;0.20;;
43509;SDS011;29105;57.764;40.952;2023-08-07T08:53:57;1.27;;;0.40;;
43509;SDS011;29105;57.764;40.952;2023-08-07T08:56:23;1.02;;;0.40;;
43509;SDS011;29105;57.764;40.952;2023-08-07T08:58:52;3.30;;;0.60;;
43509;SDS011;29105;57.764;40.952;2023-08-07T09:01:18;4.00;;;0.50;;
43509;SDS011;29105;57.764;40.952;2023-08-07T09:03:46;0.80;;;0.20;;
43509;SDS011;29105;57.764;40.952;2023-08-07T09:06:12;1.15;;;0.17;;
43509;SDS011;29105;57.764;40.952;2023-08-07T09:08:40;2.13;;;0.32;;
43509;SDS011;29105;57.764;40.952;2023-08-07T09:11:06;3.28;;;0.20;;
43509;SDS011;29105;57.764;40.952;2023-08-07T09:13:33;1.58;;;0.40;;
43509;SDS011;29105;57.764;40.952;2023-08-07T09:15:59;11.02;;;1.05;;
43509;SDS011;29105;57.764;40.952;2023-08-07T09:18:25;1.52;;;0.43;;
43509;SDS011;29105;57.764;40.952;2023-08-07T09:20:51;2.25;;;0.40;;
43509;SDS011;29105;57.764;40.952;2023-08-07T09:23:17;1.30;;;0.30;;
43509;SDS011;29105;57.764;40.952;2023-08-07T09:25:43;2.95;;;0.60;;
43509;SDS011;29105;57.764;40.952;2023-08-07T09:28:16;3.33;;;0.80;;
43509;SDS011;29105;57.764;40.952;2023-08-07T09:30:42;1.40;;;0.30;;
43509;SDS011;29105;57.764;40.952;2023-08-07T09:33:09;0.55;;;0.25;;
43509;SDS011;29105;57.764;40.952;2023-08-07T09:35:35;1.67;;;0.40;;
43509;SDS011;29105;57.764;40.952;2023-08-07T09:38:01;0.50;;;0.20;;
43509;SDS011;29105;57.764;40.952;2023-08-07T09:40:27;1.25;;;0.30;;
43509;SDS011;29105;57.764;40.952;2023-08-07T09:42:54;2.33;;;0.63;;
43509;SDS011;29105;57.764;40.952;2023-08-07T09:45:26;4.95;;;0.30;;
43509;SDS011;29105;57.764;40.952;2023-08-07T09:47:56;1.77;;;0.40;;
43509;SDS011;29105;57.764;40.952;2023-08-07T09:50:23;1.50;;;0.40;;
43509;SDS011;29105;57.764;40.952;2023-08-07T09:52:48;3.67;;;0.80;;
43509;SDS011;29105;57.764;40.952;2023-08-07T09:55:14;0.75;;;0.30;;
43509;SDS011;29105;57.764;40.952;2023-08-07T09:57:44;0.75;;;0.20;;
43509;SDS011;29105;57.764;40.952;2023-08-07T10:00:10;2.42;;;0.20;;
43509;SDS011;29105;57.764;40.952;2023-08-07T10:02:39;5.00;;;0.60;;
43509;SDS011;29105;57.764;40.952;2023-08-07T10:05:05;5.57;;;0.40;;
43509;SDS011;29105;57.764;40.952;2023-08-07T10:07:31;4.20;;;0.75;;
43509;SDS011;29105;57.764;40.952;2023-08-07T10:10:00;0.68;;;0.40;;
43509;SDS011;29105;57.764;40.952;2023-08-07T10:12:30;1.90;;;0.40;;
43509;SDS011;29105;57.764;40.952;2023-08-07T10:14:56;6.43;;;1.15;;
43509;SDS011;29105;57.764;40.952;2023-08-07T10:17:24;1.90;;;0.40;;
43509;SDS011;29105;57.764;40.952;2023-08-07T10:19:51;1.63;;;0.30;;
43509;SDS011;29105;57.764;40.952;2023-08-07T10:22:17;0.82;;;0.38;;
43509;SDS011;29105;57.764;40.952;2023-08-07T10:24:44;1.63;;;0.45;;
43509;SDS011;29105;57.764;40.952;2023-08-07T10:27:14;1.13;;;0.40;;
43509;SDS011;29105;57.764;40.952;2023-08-07T10:29:41;1.35;;;0.20;;
43509;SDS011;29105;57.764;40.952;2023-08-07T10:32:07;2.72;;;0.30;;
43509;SDS011;29105;57.764;40.952;2023-08-07T10:34:33;2.65;;;0.35;;
43509;SDS011;29105;57.764;40.952;2023-08-07T10:36:59;1.67;;;0.28;;
43509;SDS011;29105;57.764;40.952;2023-08-07T10:39:25;2.00;;;0.30;;
43509;SDS011;29105;57.764;40.952;2023-08-07T10:41:54;1.85;;;0.30;;
43509;SDS011;29105;57.764;40.952;2023-08-07T10:46:47;2.00;;;0.70;;
43509;SDS011;29105;57.764;40.952;2023-08-07T10:51:56;1.58;;;0.40;;
43509;SDS011;29105;57.764;40.952;2023-08-07T10:54:23;1.40;;;0.38;;
43509;SDS011;29105;57.764;40.952;2023-08-07T10:56:53;1.23;;;0.40;;
43509;SDS011;29105;57.764;40.952;2023-08-07T11:01:50;2.03;;;0.20;;
43509;SDS011;29105;57.764;40.952;2023-08-07T11:04:16;2.15;;;0.28;;
43509;SDS011;29105;57.764;40.952;2023-08-07T11:06:43;1.63;;;0.40;;
43509;SDS011;29105;57.764;40.952;2023-08-07T11:09:11;1.38;;;0.40;;
43509;SDS011;29105;57.764;40.952;2023-08-07T11:11:38;4.78;;;0.63;;
43509;SDS011;29105;57.764;40.952;2023-08-07T11:14:06;3.63;;;0.40;;
43509;SDS011;29105;57.764;40.952;2023-08-07T11:16:32;1.15;;;0.32;;
43509;SDS011;29105;57.764;40.952;2023-08-07T11:18:59;0.82;;;0.30;;
43509;SDS011;29105;57.764;40.952;2023-08-07T11:21:25;1.10;;;0.30;;
43509;SDS011;29105;57.764;40.952;2023-08-07T11:23:51;3.88;;;0.65;;
43509;SDS011;29105;57.764;40.952;2023-08-07T11:26:17;3.30;;;0.20;;
43509;SDS011;29105;57.764;40.952;2023-08-07T11:28:43;1.25;;;0.30;;
43509;SDS011;29105;57.764;40.952;2023-08-07T11:31:08;1.77;;;0.30;;
43509;SDS011;29105;57.764;40.952;2023-08-07T11:33:35;3.08;;;0.50;;
43509;SDS011;29105;57.764;40.952;2023-08-07T11:36:01;0.75;;;0.38;;
43509;SDS011;29105;57.764;40.952;2023-08-07T11:38:43;5.10;;;0.68;;
43509;SDS011;29105;57.764;40.952;2023-08-07T11:41:13;1.38;;;0.40;;
43509;SDS011;29105;57.764;40.952;2023-08-07T11:43:39;1.55;;;0.50;;
43509;SDS011;29105;57.764;40.952;2023-08-07T11:46:06;2.10;;;0.47;;
43509;SDS011;29105;57.764;40.952;2023-08-07T11:48:34;3.97;;;0.63;;
43509;SDS011;29105;57.764;40.952;2023-08-07T11:51:01;2.10;;;0.40;;
43509;SDS011;29105;57.764;40.952;2023-08-07T11:53:29;2.33;;;0.38;;
43509;SDS011;29105;57.764;40.952;2023-08-07T11:55:57;1.52;;;0.50;;
43509;SDS011;29105;57.764;40.952;2023-08-07T11:58:24;1.08;;;0.22;;
43509;SDS011;29105;57.764;40.952;2023-08-07T12:00:51;1.20;;;0.40;;
43509;SDS011;29105;57.764;40.952;2023-08-07T12:03:30;3.55;;;0.50;;
43509;SDS011;29105;57.764;40.952;2023-08-07T12:06:02;3.72;;;0.60;;
43509;SDS011;29105;57.764;40.952;2023-08-07T12:08:32;2.70;;;0.43;;
43509;SDS011;29105;57.764;40.952;2023-08-07T12:11:03;5.60;;;0.98;;
43509;SDS011;29105;57.764;40.952;2023-08-07T12:13:31;3.33;;;0.32;;
43509;SDS011;29105;57.764;40.952;2023-08-07T12:16:00;0.80;;;0.38;;
43509;SDS011;29105;57.764;40.952;2023-08-07T12:18:27;1.58;;;0.55;;
43509;SDS011;29105;57.764;40.952;2023-08-07T12:20:58;1.08;;;0.60;;
43509;SDS011;29105;57.764;40.952;2023-08-07T12:23:29;3.72;;;0.63;;
43509;SDS011;29105;57.764;40.952;2023-08-07T12:25:56;2.45;;;0.40;;
43509;SDS011;29105;57.764;40.952;2023-08-07T12:28:22;3.05;;;0.30;;
43509;SDS011;29105;57.764;40.952;2023-08-07T12:30:49;2.88;;;0.80;;
43509;SDS011;29105;57.764;40.952;2023-08-07T12:33:16;3.03;;;0.40;;
43509;SDS011;29105;57.764;40.952;2023-08-07T12:35:42;2.92;;;0.52;;
43509;SDS011;29105;57.764;40.952;2023-08-07T12:38:08;0.77;;;0.32;;
43509;SDS011;29105;57.764;40.952;2023-08-07T12:40:34;2.53;;;0.30;;
43509;SDS011;29105;57.764;40.952;2023-08-07T12:43:02;2.75;;;0.35;;
43509;SDS011;29105;57.764;40.952;2023-08-07T12:45:28;3.10;;;0.52;;
43509;SDS011;29105;57.764;40.952;2023-08-07T12:47:54;5.38;;;0.50;;
43509;SDS011;29105;57.764;40.952;2023-08-07T12:50:19;1.55;;;0.30;;
43509;SDS011;29105;57.764;40.952;2023-08-07T12:52:45;2.60;;;0.60;;
43509;SDS011;29105;57.764;40.952;2023-08-07T12:55:11;0.85;;;0.32;;
43509;SDS011;29105;57.764;40.952;2023-08-07T12:57:37;4.28;;;0.32;;
43509;SDS011;29105;57.764;40.952;2023-08-07T13:00:05;1.92;;;0.40;;
43509;SDS011;29105;57.764;40.952;2023-08-07T13:02:33;3.97;;;0.30;;
43509;SDS011;29105;57.764;40.952;2023-08-07T13:04:59;2.85;;;0.40;;
43509;SDS011;29105;57.764;40.952;2023-08-07T13:07:24;1.98;;;0.50;;
43509;SDS011;29105;57.764;40.952;2023-08-07T13:09:50;1.92;;;0.60;;
43509;SDS011;29105;57.764;40.952;2023-08-07T13:12:16;3.88;;;1.33;;
43509;SDS011;29105;57.764;40.952;2023-08-07T13:14:42;6.97;;;1.45;;
43509;SDS011;29105;57.764;40.952;2023-08-07T13:17:07;4.80;;;1.58;;
43509;SDS011;29105;57.764;40.952;2023-08-07T13:19:33;3.33;;;1.15;;
43509;SDS011;29105;57.764;40.952;2023-08-07T13:21:58;1.15;;;0.40;;
43509;SDS011;29105;57.764;40.952;2023-08-07T13:24:24;1.13;;;0.30;;
43509;SDS011;29105;57.764;40.952;2023-08-07T13:26:50;3.92;;;0.77;;
43509;SDS011;29105;57.764;40.952;2023-08-07T13:29:15;2.28;;;0.45;;
43509;SDS011;29105;57.764;40.952;2023-08-07T13:31:41;1.92;;;0.40;;
43509;SDS011;29105;57.764;40.952;2023-08-07T13:34:09;0.85;;;0.30;;
43509;SDS011;29105;57.764;40.952;2023-08-07T13:36:36;3.80;;;0.50;;
43509;SDS011;29105;57.764;40.952;2023-08-07T13:39:03;2.45;;;0.63;;
43509;SDS011;29105;57.764;40.952;2023-08-07T13:41:32;4.60;;;0.60;;
43509;SDS011;29105;57.764;40.952;2023-08-07T13:43:58;1.35;;;0.50;;
43509;SDS011;29105;57.764;40.952;2023-08-07T13:46:24;3.00;;;0.38;;
43509;SDS011;29105;57.764;40.952;2023-08-07T13:48:50;1.90;;;0.47;;
43509;SDS011;29105;57.764;40.952;2023-08-07T13:51:15;3.35;;;0.50;;
43509;SDS011;29105;57.764;40.952;2023-08-07T13:53:41;4.00;;;0.60;;
43509;SDS011;29105;57.764;40.952;2023-08-07T13:56:07;2.75;;;0.60;;
43509;SDS011;29105;57.764;40.952;2023-08-07T13:58:36;2.08;;;0.57;;
43509;SDS011;29105;57.764;40.952;2023-08-07T14:01:01;1.80;;;0.50;;
43509;SDS011;29105;57.764;40.952;2023-08-07T14:03:27;1.30;;;0.50;;
43509;SDS011;29105;57.764;40.952;2023-08-07T14:05:53;3.10;;;0.43;;
43509;SDS011;29105;57.764;40.952;2023-08-07T14:08:19;1.73;;;0.55;;
43509;SDS011;29105;57.764;40.952;2023-08-07T14:10:44;5.22;;;0.68;;
43509;SDS011;29105;57.764;40.952;2023-08-07T14:13:10;2.45;;;0.57;;
43509;SDS011;29105;57.764;40.952;2023-08-07T14:15:37;3.40;;;0.80;;
43509;SDS011;29105;57.764;40.952;2023-08-07T14:18:02;2.08;;;0.60;;
43509;SDS011;29105;57.764;40.952;2023-08-07T14:20:30;14.23;;;1.08;;
43509;SDS011;29105;57.764;40.952;2023-08-07T14:22:56;2.58;;;0.45;;
43509;SDS011;29105;57.764;40.952;2023-08-07T14:25:21;3.72;;;0.70;;
43509;SDS011;29105;57.764;40.952;2023-08-07T14:27:47;2.20;;;0.60;;
43509;SDS011;29105;57.764;40.952;2023-08-07T14:30:13;6.97;;;1.08;;
43509;SDS011;29105;57.764;40.952;2023-08-07T14:32:39;6.07;;;0.60;;
43509;SDS011;29105;57.764;40.952;2023-08-07T14:35:05;1.23;;;0.52;;
43509;SDS011;29105;57.764;40.952;2023-08-07T14:37:31;2.25;;;0.60;;
43509;SDS011;29105;57.764;40.952;2023-08-07T14:39:57;3.22;;;0.65;;
43509;SDS011;29105;57.764;40.952;2023-08-07T14:42:23;1.85;;;0.80;;
43509;SDS011;29105;57.764;40.952;2023-08-07T14:44:49;2.80;;;0.68;;
43509;SDS011;29105;57.764;40.952;2023-08-07T14:47:15;2.47;;;0.68;;
43509;SDS011;29105;57.764;40.952;2023-08-07T14:49:41;5.50;;;0.93;;
43509;SDS011;29105;57.764;40.952;2023-08-07T14:52:06;3.60;;;0.77;;